createdAt,value
2022-11-01T00:02:11.926Z,16.52
2022-11-01T00:04:39.140Z,18.15
2022-11-01T00:07:06.697Z,17.63
2022-11-01T00:09:33.674Z,18.00
2022-11-01T00:12:00.452Z,16.83
2022-11-01T00:14:27.172Z,17.20
2022-11-01T00:16:54.008Z,17.10
2022-11-01T00:19:20.744Z,16.73
2022-11-01T00:21:47.534Z,17.98
2022-11-01T00:24:14.462Z,16.70
2022-11-01T00:26:41.288Z,18.58
2022-11-01T00:29:08.311Z,18.23
2022-11-01T00:31:35.375Z,17.35
2022-11-01T00:34:05.537Z,16.45
2022-11-01T00:36:33.923Z,16.88
2022-11-01T00:39:00.949Z,16.08
2022-11-01T00:41:27.751Z,16.58
2022-11-01T00:43:54.513Z,17.85
2022-11-01T00:46:21.219Z,17.08
2022-11-01T00:48:47.984Z,17.45
2022-11-01T00:51:14.689Z,16.40
2022-11-01T00:53:41.777Z,18.25
2022-11-01T00:56:09.103Z,17.52
2022-11-01T00:58:35.880Z,17.20
2022-11-01T01:01:02.930Z,16.95
2022-11-01T01:03:29.795Z,17.27
2022-11-01T01:05:57.371Z,17.52
2022-11-01T01:08:25.042Z,17.20
2022-11-01T01:10:51.974Z,17.02
2022-11-01T01:13:19.113Z,17.50
2022-11-01T01:15:46.266Z,17.35
2022-11-01T01:18:13.741Z,17.58
2022-11-01T01:20:40.555Z,18.10
2022-11-01T01:23:07.463Z,16.95
2022-11-01T01:25:34.274Z,15.90
2022-11-01T01:28:01.453Z,17.20
2022-11-01T01:30:28.658Z,17.98
2022-11-01T01:32:55.401Z,16.75
2022-11-01T01:35:22.112Z,16.67
2022-11-01T01:37:48.833Z,17.30
2022-11-01T01:40:15.623Z,17.25
2022-11-01T01:42:43.283Z,17.05
2022-11-01T01:45:29.680Z,17.05
2022-11-01T01:48:12.648Z,17.77
2022-11-01T01:50:58.549Z,15.88
2022-11-01T01:53:31.351Z,15.38
2022-11-01T01:56:03.745Z,14.60
2022-11-01T01:58:37.433Z,14.43
2022-11-01T02:01:05.322Z,15.38
2022-11-01T02:03:34.806Z,14.35
2022-11-01T02:06:09.439Z,15.90
2022-11-01T02:08:41.994Z,13.60
2022-11-01T02:11:11.006Z,13.80
2022-11-01T02:13:38.416Z,13.93
2022-11-01T02:16:35.776Z,14.02
2022-11-01T02:19:46.734Z,14.15
2022-11-01T02:23:05.692Z,12.82
2022-11-01T02:26:11.716Z,13.85
2022-11-01T02:29:26.518Z,14.15
2022-11-01T02:32:19.204Z,13.23
2022-11-01T02:35:12.266Z,13.05
2022-11-01T02:38:07.280Z,13.70
2022-11-01T02:40:51.160Z,13.60
2022-11-01T02:43:30.667Z,13.27
2022-11-01T02:46:19.911Z,14.00
2022-11-01T02:48:49.099Z,14.95
2022-11-01T02:51:21.336Z,14.27
2022-11-01T02:53:48.069Z,14.90
2022-11-01T02:56:17.641Z,14.23
2022-11-01T02:58:47.825Z,13.70
2022-11-01T03:01:23.677Z,14.60
2022-11-01T03:03:54.009Z,14.40
2022-11-01T03:06:33.971Z,14.65
2022-11-01T03:09:06.291Z,15.80
2022-11-01T03:11:53.376Z,14.15
2022-11-01T03:14:45.425Z,14.27
2022-11-01T03:17:22.969Z,13.15
2022-11-01T03:20:05.715Z,14.50
2022-11-01T03:22:44.101Z,13.15
2022-11-01T03:25:41.777Z,13.77
2022-11-01T03:28:27.101Z,14.68
2022-11-01T03:31:05.404Z,13.90
2022-11-01T03:33:37.292Z,14.23
2022-11-01T03:36:13.672Z,14.75
2022-11-01T03:38:48.761Z,13.90
2022-11-01T03:43:47.392Z,11.95
2022-11-01T03:46:15.659Z,13.07
2022-11-01T03:48:42.519Z,13.38
2022-11-01T03:51:09.409Z,14.18
2022-11-01T03:53:36.386Z,13.95
2022-11-01T03:56:03.132Z,13.65
2022-11-01T03:58:41.613Z,14.07
2022-11-01T04:01:10.899Z,13.07
2022-11-01T04:03:38.791Z,13.45
2022-11-01T04:06:06.150Z,13.07
2022-11-01T04:08:36.851Z,13.55
2022-11-01T04:11:04.499Z,13.90
2022-11-01T04:13:31.270Z,13.98
2022-11-01T04:16:17.721Z,14.18
2022-11-01T04:19:03.782Z,14.00
2022-11-01T04:21:32.307Z,14.60
2022-11-01T04:23:59.168Z,13.40
2022-11-01T04:26:26.619Z,14.07
2022-11-01T04:28:58.981Z,14.48
2022-11-01T04:31:36.660Z,15.50
2022-11-01T04:34:05.427Z,15.23
2022-11-01T04:36:32.659Z,15.57
2022-11-01T04:38:59.617Z,14.30
2022-11-01T04:41:29.415Z,15.88
2022-11-01T04:43:58.988Z,15.50
2022-11-01T04:46:28.898Z,15.18
2022-11-01T04:48:55.611Z,13.20
2022-11-01T04:51:22.331Z,14.32
2022-11-01T04:53:49.098Z,14.98
2022-11-01T04:56:16.584Z,14.82
2022-11-01T04:58:46.450Z,14.18
2022-11-01T05:01:14.467Z,14.70
2022-11-01T05:03:42.188Z,16.35
2022-11-01T05:06:08.989Z,15.73
2022-11-01T05:08:36.259Z,16.20
2022-11-01T05:11:03.217Z,15.38
2022-11-01T05:13:30.483Z,15.75
2022-11-01T05:16:18.303Z,15.27
2022-11-01T05:18:44.024Z,14.82
2022-11-01T05:21:11.808Z,16.60
2022-11-01T05:23:38.951Z,15.35
2022-11-01T05:26:06.168Z,15.60
2022-11-01T05:28:32.973Z,15.55
2022-11-01T05:30:59.718Z,15.48
2022-11-01T05:33:26.554Z,16.10
2022-11-01T05:35:53.352Z,16.27
2022-11-01T05:38:20.164Z,17.02
2022-11-01T05:40:46.997Z,15.48
2022-11-01T05:43:13.712Z,16.40
2022-11-01T05:45:40.489Z,15.45
2022-11-01T05:48:07.311Z,15.05
2022-11-01T05:50:34.117Z,16.35
2022-11-01T05:53:08.355Z,15.38
2022-11-01T05:55:36.093Z,15.30
2022-11-01T05:58:03.477Z,15.70
2022-11-01T06:00:30.292Z,14.80
2022-11-01T06:03:00.578Z,14.82
2022-11-01T06:05:29.135Z,15.35
2022-11-01T06:07:56.657Z,15.00
2022-11-01T06:10:24.227Z,14.57
2022-11-01T06:12:50.975Z,16.25
2022-11-01T06:15:17.992Z,14.77
2022-11-01T06:17:44.927Z,14.48
2022-11-01T06:20:12.217Z,14.50
2022-11-01T06:22:39.634Z,14.52
2022-11-01T06:25:08.224Z,14.60
2022-11-01T06:27:35.240Z,14.45
2022-11-01T06:30:02.078Z,14.55
2022-11-01T06:32:28.843Z,15.20
2022-11-01T06:34:55.653Z,15.88
2022-11-01T06:37:22.426Z,15.55
2022-11-01T06:39:49.293Z,15.43
2022-11-01T06:42:16.325Z,14.38
2022-11-01T06:44:43.077Z,14.77
2022-11-01T06:47:12.375Z,14.82
2022-11-01T06:49:39.665Z,14.25
2022-11-01T06:52:07.102Z,14.75
2022-11-01T06:54:34.057Z,15.45
2022-11-01T06:57:00.795Z,16.02
2022-11-01T06:59:27.541Z,15.73
2022-11-01T07:01:54.565Z,15.65
2022-11-01T07:04:21.611Z,15.32
2022-11-01T07:06:48.325Z,16.00
2022-11-01T07:09:15.242Z,15.20
2022-11-01T07:11:42.064Z,15.43
2022-11-01T07:14:09.940Z,15.05
2022-11-01T07:16:40.696Z,15.77
2022-11-01T07:19:07.600Z,14.73
2022-11-01T07:21:34.315Z,14.80
2022-11-01T07:24:01.165Z,15.07
2022-11-01T07:26:28.018Z,15.32
2022-11-01T07:28:54.785Z,16.17
2022-11-01T07:31:21.584Z,14.05
2022-11-01T07:33:48.340Z,14.60
2022-11-01T07:36:15.101Z,16.20
2022-11-01T07:38:41.908Z,15.77
2022-11-01T07:41:09.161Z,15.10
2022-11-01T07:43:36.676Z,15.30
2022-11-01T07:46:07.211Z,15.30
2022-11-01T07:48:36.682Z,15.38
2022-11-01T07:51:06.046Z,14.63
2022-11-01T07:53:33.991Z,14.70
2022-11-01T07:56:02.037Z,16.27
2022-11-01T07:58:29.393Z,15.45
2022-11-01T08:00:56.654Z,15.07
2022-11-01T08:03:23.992Z,14.07
2022-11-01T08:05:50.769Z,14.77
2022-11-01T08:08:20.658Z,13.95
2022-11-01T08:10:47.373Z,15.10
2022-11-01T08:13:18.147Z,14.73
2022-11-01T08:15:46.397Z,13.05
2022-11-01T08:18:13.418Z,13.80
2022-11-01T08:20:41.144Z,14.40
2022-11-01T08:23:08.861Z,13.70
2022-11-01T08:25:36.433Z,13.57
2022-11-01T08:28:10.431Z,13.43
2022-11-01T08:30:40.064Z,13.00
2022-11-01T08:33:07.103Z,12.38
2022-11-01T08:35:35.155Z,12.82
2022-11-01T08:38:03.487Z,12.98
2022-11-01T08:40:32.401Z,13.90
2022-11-01T08:42:59.723Z,13.45
2022-11-01T08:45:27.408Z,13.18
2022-11-01T08:47:59.669Z,12.43
2022-11-01T08:50:27.464Z,11.93
2022-11-01T08:52:54.433Z,11.65
2022-11-01T08:55:21.794Z,12.65
2022-11-01T08:57:48.669Z,12.10
2022-11-01T09:00:16.793Z,11.57
2022-11-01T09:02:43.793Z,11.75
2022-11-01T09:05:10.785Z,11.48
2022-11-01T09:07:38.654Z,12.18
2022-11-01T09:10:07.073Z,11.90
2022-11-01T09:12:34.509Z,11.77
2022-11-01T09:15:01.489Z,11.68
2022-11-01T09:17:28.312Z,11.60
2022-11-01T09:19:55.276Z,11.32
2022-11-01T09:22:22.922Z,11.30
2022-11-01T09:24:50.523Z,12.02
2022-11-01T09:27:17.280Z,10.48
2022-11-01T09:29:46.564Z,10.57
2022-11-01T09:32:16.221Z,10.65
2022-11-01T09:34:42.968Z,9.95
2022-11-01T09:37:09.733Z,10.30
2022-11-01T09:39:36.460Z,10.57
2022-11-01T09:42:10.951Z,9.25
2022-11-01T09:44:45.574Z,10.32
2022-11-01T09:47:21.795Z,9.85
2022-11-01T09:50:00.474Z,9.57
2022-11-01T09:52:27.560Z,9.90
2022-11-01T09:54:54.345Z,9.07
2022-11-01T09:57:39.901Z,8.63
2022-11-01T10:00:19.245Z,8.23
2022-11-01T10:03:46.789Z,8.25
2022-11-01T10:06:30.237Z,8.85
2022-11-01T10:09:31.470Z,8.68
2022-11-01T10:12:24.197Z,9.02
2022-11-01T10:15:26.537Z,8.73
2022-11-01T10:17:56.707Z,8.18
2022-11-01T10:20:32.964Z,8.25
2022-11-01T10:23:04.187Z,8.65
2022-11-01T10:25:36.129Z,8.25
2022-11-01T10:28:18.353Z,7.72
2022-11-01T10:30:53.493Z,8.50
2022-11-01T10:33:33.868Z,7.97
2022-11-01T10:36:14.480Z,8.18
2022-11-01T10:39:36.964Z,7.60
2022-11-01T10:41:43.326Z,8.25
2022-11-01T10:44:33.172Z,7.47
2022-11-01T10:47:07.118Z,7.65
2022-11-01T10:50:04.986Z,7.35
2022-11-01T10:52:51.930Z,7.88
2022-11-01T10:55:34.014Z,7.40
2022-11-01T10:58:36.338Z,7.88
2022-11-01T11:01:07.615Z,7.28
2022-11-01T11:03:34.782Z,6.72
2022-11-01T11:06:10.403Z,7.45
2022-11-01T11:08:41.105Z,7.43
2022-11-01T11:11:15.345Z,7.07
2022-11-01T11:13:50.893Z,6.30
2022-11-01T11:16:45.834Z,6.78
2022-11-01T11:19:30.659Z,6.40
2022-11-01T11:21:59.963Z,6.07
2022-11-01T11:24:37.974Z,6.25
2022-11-01T11:27:18.405Z,5.45
2022-11-01T11:29:54.084Z,6.20
2022-11-01T11:32:26.109Z,5.90
2022-11-01T11:35:06.953Z,5.55
2022-11-01T11:37:38.469Z,5.78
2022-11-01T11:40:24.630Z,5.63
2022-11-01T11:43:22.385Z,5.30
2022-11-01T11:46:23.394Z,4.97
2022-11-01T11:49:04.332Z,4.90
2022-11-01T11:51:37.429Z,4.65
2022-11-01T11:54:24.710Z,4.63
2022-11-01T11:57:18.021Z,5.05
2022-11-01T11:59:51.343Z,7.03
2022-11-01T12:02:27.323Z,5.60
2022-11-01T12:05:03.549Z,5.15
2022-11-01T12:07:53.971Z,4.82
2022-11-01T12:10:45.624Z,4.32
2022-11-01T12:13:41.201Z,4.47
2022-11-01T12:16:14.714Z,4.22
2022-11-01T12:18:59.669Z,4.75
2022-11-01T12:21:44.357Z,4.40
2022-11-01T12:24:28.283Z,3.70
2022-11-01T12:29:39.279Z,4.20
2022-11-01T12:32:48.025Z,4.13
2022-11-01T12:35:42.734Z,4.30
2022-11-01T12:38:33.444Z,4.60
2022-11-01T12:41:21.811Z,5.40
2022-11-01T12:44:13.400Z,5.00
2022-11-01T12:47:08.530Z,4.35
2022-11-01T12:50:07.324Z,4.18
2022-11-01T12:52:57.407Z,4.93
2022-11-01T12:55:38.205Z,5.05
2022-11-01T12:58:13.288Z,5.32
2022-11-01T13:01:31.002Z,5.22
2022-11-01T13:04:37.230Z,4.20
2022-11-01T13:07:55.845Z,4.45
2022-11-01T13:10:34.168Z,4.38
2022-11-01T13:13:17.629Z,5.70
2022-11-01T13:16:08.693Z,4.20
2022-11-01T13:18:46.637Z,4.55
2022-11-01T13:21:49.828Z,4.28
2022-11-01T13:25:12.258Z,4.38
2022-11-01T13:27:51.413Z,5.25
2022-11-01T13:30:20.574Z,4.90
2022-11-01T13:33:16.801Z,4.72
2022-11-01T13:36:28.701Z,4.93
2022-11-01T13:39:07.350Z,4.45
2022-11-01T13:41:57.712Z,4.30
2022-11-01T13:44:31.151Z,4.32
2022-11-01T13:47:53.257Z,4.70
2022-11-01T13:50:42.136Z,4.43
2022-11-01T13:54:04.635Z,3.90
2022-11-01T13:56:48.665Z,3.88
2022-11-01T14:02:24.395Z,3.70
2022-11-01T14:05:10.709Z,4.10
2022-11-01T14:08:04.603Z,4.15
2022-11-01T14:13:07.424Z,3.45
2022-11-01T14:15:39.642Z,3.33
2022-11-01T14:18:11.366Z,3.72
2022-11-01T14:20:43.749Z,3.78
2022-11-01T14:23:28.753Z,3.80
2022-11-01T14:26:20.191Z,4.50
2022-11-01T14:28:55.185Z,3.53
2022-11-01T14:31:27.911Z,3.88
2022-11-01T14:33:59.987Z,4.15
2022-11-01T14:36:33.017Z,4.70
2022-11-01T14:39:15.915Z,3.75
2022-11-01T14:41:44.637Z,3.83
2022-11-01T14:44:25.978Z,4.22
2022-11-01T14:46:58.001Z,5.03
2022-11-01T14:49:35.967Z,4.57
2022-11-01T14:52:15.961Z,4.80
2022-11-01T14:55:13.773Z,4.88
2022-11-01T14:57:40.785Z,4.30
2022-11-01T15:00:28.445Z,3.63
2022-11-01T15:05:27.185Z,4.30
2022-11-01T15:08:01.274Z,4.40
2022-11-01T15:10:40.643Z,3.80
2022-11-01T15:13:07.403Z,4.45
2022-11-01T15:15:38.193Z,4.55
2022-11-01T15:18:14.697Z,4.88
2022-11-01T15:20:48.485Z,4.28
2022-11-01T15:25:54.473Z,3.50
2022-11-01T15:28:26.545Z,3.65
2022-11-01T15:31:01.018Z,4.03
2022-11-01T15:33:32.543Z,3.75
2022-11-01T15:36:20.257Z,4.45
2022-11-01T15:39:00.953Z,4.80
2022-11-01T15:41:33.982Z,4.70
2022-11-01T15:44:06.969Z,4.20
2022-11-01T15:46:40.639Z,5.07
2022-11-01T15:49:15.793Z,4.32
2022-11-01T15:51:54.310Z,3.83
2022-11-01T15:54:45.594Z,4.13
2022-11-01T15:57:23.944Z,3.83
2022-11-01T15:59:57.866Z,4.43
2022-11-01T16:02:41.042Z,4.20
2022-11-01T16:05:12.112Z,4.28
2022-11-01T16:07:40.274Z,4.32
2022-11-01T16:10:16.503Z,4.75
2022-11-01T16:12:45.970Z,4.28
2022-11-01T16:15:28.181Z,4.10
2022-11-01T16:17:57.524Z,4.05
2022-11-01T16:20:37.402Z,4.20
2022-11-01T16:23:10.440Z,4.10
2022-11-01T16:25:39.801Z,5.13
2022-11-01T16:28:09.580Z,3.88
2022-11-01T16:30:48.381Z,4.85
2022-11-01T16:33:36.541Z,4.95
2022-11-01T16:36:32.930Z,4.35
2022-11-01T16:38:59.706Z,4.60
2022-11-01T16:41:40.691Z,4.35
2022-11-01T16:44:16.128Z,4.80
2022-11-01T16:46:43.244Z,3.95
2022-11-01T16:49:21.069Z,5.07
2022-11-01T16:51:47.831Z,4.78
2022-11-01T16:54:15.077Z,5.47
2022-11-01T16:56:49.990Z,5.00
2022-11-01T16:59:28.742Z,4.72
2022-11-01T17:01:58.416Z,5.03
2022-11-01T17:04:26.973Z,4.65
2022-11-01T17:06:57.839Z,5.00
2022-11-01T17:09:24.990Z,5.10
2022-11-01T17:11:53.798Z,4.65
2022-11-01T17:14:22.162Z,5.18
2022-11-01T17:16:52.483Z,4.53
2022-11-01T17:19:33.698Z,5.35
2022-11-01T17:22:06.876Z,4.90
2022-11-01T17:24:34.155Z,4.78
2022-11-01T17:27:05.253Z,5.28
2022-11-01T17:29:32.807Z,5.22
2022-11-01T17:32:01.093Z,4.93
2022-11-01T17:34:28.979Z,5.80
2022-11-01T17:36:57.470Z,5.63
2022-11-01T17:39:28.733Z,5.40
2022-11-01T17:41:56.319Z,5.20
2022-11-01T17:44:23.168Z,5.10
2022-11-01T17:46:50.849Z,4.97
2022-11-01T17:49:21.451Z,5.72
2022-11-01T17:51:53.291Z,5.15
2022-11-01T17:54:21.983Z,7.03
2022-11-01T17:56:48.767Z,6.30
2022-11-01T17:59:15.543Z,5.53
2022-11-01T18:01:42.799Z,5.97
2022-11-01T18:04:09.761Z,5.85
2022-11-01T18:06:36.494Z,5.57
2022-11-01T18:09:25.581Z,6.07
2022-11-01T18:12:31.285Z,5.82
2022-11-01T18:15:08.341Z,5.28
2022-11-01T18:18:04.028Z,5.78
2022-11-01T18:21:19.751Z,6.00
2022-11-01T18:23:48.973Z,4.88
2022-11-01T18:26:22.943Z,5.93
2022-11-01T18:28:54.794Z,5.72
2022-11-01T18:31:31.371Z,5.13
2022-11-01T18:34:46.533Z,4.72
2022-11-01T18:37:29.512Z,5.47
2022-11-01T18:40:10.462Z,5.10
2022-11-01T18:42:37.379Z,5.25
2022-11-01T18:45:31.787Z,5.28
2022-11-01T18:48:16.967Z,4.75
2022-11-01T18:50:44.056Z,4.57
2022-11-01T18:53:17.989Z,5.25
2022-11-01T18:55:49.482Z,5.47
2022-11-01T18:58:28.816Z,5.43
2022-11-01T19:01:23.885Z,6.63
2022-11-01T19:04:10.860Z,6.10
2022-11-01T19:06:37.812Z,7.15
2022-11-01T19:09:24.521Z,7.40
2022-11-01T19:12:01.463Z,7.20
2022-11-01T19:14:30.507Z,6.75
2022-11-01T19:16:58.313Z,7.30
2022-11-01T19:19:25.052Z,7.18
2022-11-01T19:21:57.322Z,7.18
2022-11-01T19:24:37.886Z,7.22
2022-11-01T19:27:20.911Z,7.38
2022-11-01T19:29:52.847Z,7.53
2022-11-01T19:32:24.675Z,7.45
2022-11-01T19:34:52.944Z,7.10
2022-11-01T19:37:30.483Z,6.93
2022-11-01T19:40:00.134Z,6.93
2022-11-01T19:42:31.599Z,7.43
2022-11-01T19:45:06.565Z,7.45
2022-11-01T19:47:40.535Z,7.75
2022-11-01T19:50:29.709Z,7.15
2022-11-01T19:52:59.236Z,7.00
2022-11-01T19:55:53.690Z,7.47
2022-11-01T20:01:09.426Z,6.38
2022-11-01T20:03:44.958Z,6.97
2022-11-01T20:06:14.650Z,7.40
2022-11-01T20:08:42.792Z,7.85
2022-11-01T20:11:09.704Z,7.78
2022-11-01T20:13:36.493Z,8.90
2022-11-01T20:16:03.222Z,9.25
2022-11-01T20:18:30.012Z,8.75
2022-11-01T20:20:57.666Z,8.73
2022-11-01T20:23:26.949Z,7.88
2022-11-01T20:25:55.165Z,8.55
2022-11-01T20:28:21.988Z,9.27
2022-11-01T20:30:48.743Z,9.65
2022-11-01T20:33:16.396Z,8.85
2022-11-01T20:35:43.420Z,9.25
2022-11-01T20:38:10.378Z,8.48
2022-11-01T20:40:37.348Z,7.93
2022-11-01T20:43:04.533Z,8.23
2022-11-01T20:45:31.644Z,7.20
2022-11-01T20:47:58.358Z,7.82
2022-11-01T20:50:25.124Z,7.75
2022-11-01T20:52:51.968Z,9.00
2022-11-01T20:55:19.588Z,10.27
2022-11-01T20:57:46.478Z,9.70
2022-11-01T21:00:18.002Z,9.05
2022-11-01T21:02:46.665Z,9.30
2022-11-01T21:05:31.329Z,8.70
2022-11-01T21:08:30.403Z,8.10
2022-11-01T21:11:01.588Z,7.32
2022-11-01T21:13:35.519Z,7.38
2022-11-01T21:16:07.666Z,6.95
2022-11-01T21:18:43.564Z,6.30
2022-11-01T21:21:16.176Z,6.85
2022-11-01T21:23:44.690Z,7.28
2022-11-01T21:26:23.885Z,6.90
2022-11-01T21:28:58.720Z,6.68
2022-11-01T21:31:29.676Z,6.30
2022-11-01T21:34:22.900Z,7.00
2022-11-01T21:36:53.371Z,6.60
2022-11-01T21:39:27.108Z,6.38
2022-11-01T21:42:01.644Z,6.78
2022-11-01T21:44:34.379Z,6.10
2022-11-01T21:47:19.061Z,7.10
2022-11-01T21:49:45.884Z,7.15
2022-11-01T21:52:13.728Z,7.20
2022-11-01T21:54:42.340Z,7.22
2022-11-01T21:57:12.000Z,6.78
2022-11-01T21:59:39.954Z,7.47
2022-11-01T22:02:11.048Z,7.63
2022-11-01T22:04:38.236Z,7.60
2022-11-01T22:07:07.107Z,7.82
2022-11-01T22:09:34.813Z,7.40
2022-11-01T22:12:01.753Z,7.50
2022-11-01T22:14:28.601Z,8.27
2022-11-01T22:16:55.343Z,7.53
2022-11-01T22:19:22.130Z,7.55
2022-11-01T22:21:48.830Z,8.43
2022-11-01T22:24:15.550Z,8.15
2022-11-01T22:26:42.289Z,8.18
2022-11-01T22:29:09.078Z,7.32
2022-11-01T22:31:35.835Z,7.30
2022-11-01T22:34:02.750Z,7.13
2022-11-01T22:36:35.694Z,7.50
2022-11-01T22:39:27.585Z,6.97
2022-11-01T22:41:55.158Z,6.68
2022-11-01T22:44:32.387Z,6.18
2022-11-01T22:47:02.687Z,6.53
2022-11-01T22:49:41.653Z,5.85
2022-11-01T22:52:31.750Z,5.90
2022-11-01T22:55:10.407Z,5.15
2022-11-01T22:57:54.292Z,5.22
2022-11-01T23:00:32.653Z,5.70
2022-11-01T23:03:22.622Z,5.22
2022-11-01T23:06:00.050Z,5.55
2022-11-01T23:08:29.682Z,4.90
2022-11-01T23:10:57.347Z,5.75
2022-11-01T23:13:50.660Z,4.82
2022-11-01T23:16:20.127Z,5.10
2022-11-01T23:18:46.887Z,5.22
2022-11-01T23:21:13.661Z,5.07
2022-11-01T23:23:45.006Z,5.32
2022-11-01T23:26:15.083Z,5.20
2022-11-01T23:28:46.484Z,4.95
2022-11-01T23:31:13.937Z,5.28
2022-11-01T23:33:44.628Z,4.80
2022-11-01T23:36:31.375Z,4.53
2022-11-01T23:39:08.944Z,4.47
2022-11-01T23:41:42.637Z,5.40
2022-11-01T23:44:29.652Z,4.28
2022-11-01T23:47:05.641Z,4.60
2022-11-01T23:49:34.510Z,4.60
2022-11-01T23:52:01.408Z,4.35
2022-11-01T23:54:42.147Z,4.65
2022-11-01T23:57:19.569Z,4.38
2022-11-01T23:59:49.507Z,4.72
